Time;durP1;ratioP1;P1;durP2;ratioP2;P2;SDS_P1;SDS_P2;PMS_P1;PMS_P2;Temp;Humidity;BMP_temperature;BMP_pressure;BME280_temperature;BME280_humidity;BME280_pressure;Samples;Min_cycle;Max_cycle;Signal;HPM_P1;HPM_P2
2023/07/02 00:01:40;;;;;;;101.25;62.58;;;19.10;76.90;;;;;;4912194;28;89733;-49
2023/07/02 00:04:08;;;;;;;99.93;62.90;;;19.10;78.10;;;;;;4916527;28;91740;-47
2023/07/02 00:06:40;;;;;;;97.30;61.65;;;19.00;77.70;;;;;;4924781;28;90776;-47
2023/07/02 00:09:10;;;;;;;103.93;62.92;;;19.00;78.40;;;;;;4921141;28;89895;-48
2023/07/02 00:11:38;;;;;;;98.93;62.50;;;19.00;77.00;;;;;;4947389;22;90568;-47
2023/07/02 00:14:04;;;;;;;99.97;61.42;;;19.00;77.80;;;;;;4955755;28;90697;-48
2023/07/02 00:16:30;;;;;;;101.00;62.72;;;19.00;78.00;;;;;;4949639;28;89785;-47
2023/07/02 00:18:55;;;;;;;106.35;63.95;;;19.00;78.70;;;;;;4964761;28;90813;-47
2023/07/02 00:21:21;;;;;;;99.15;63.05;;;19.00;77.30;;;;;;4957189;28;90132;-47
2023/07/02 00:23:47;;;;;;;99.72;62.97;;;19.00;77.30;;;;;;4955482;28;90494;-48
2023/07/02 00:26:13;;;;;;;97.30;60.95;;;19.00;77.50;;;;;;4957564;28;91118;-47
2023/07/02 00:28:39;;;;;;;104.65;64.30;;;18.90;78.50;;;;;;4950893;28;91282;-46
2023/07/02 00:31:04;;;;;;;104.72;63.35;;;18.90;77.30;;;;;;4955686;28;90026;-47
2023/07/02 00:33:31;;;;;;;104.38;65.22;;;18.90;77.40;;;;;;4957042;28;89500;-47
2023/07/02 00:35:57;;;;;;;110.40;65.30;;;18.90;77.20;;;;;;4943263;28;92829;-48
2023/07/02 00:38:23;;;;;;;106.72;65.45;;;18.90;77.30;;;;;;4952659;28;90591;-47
2023/07/02 00:40:49;;;;;;;107.07;64.50;;;18.90;77.10;;;;;;4958197;28;89496;-47
2023/07/02 00:43:14;;;;;;;109.90;66.82;;;18.90;77.50;;;;;;4965433;28;90434;-49
2023/07/02 00:45:40;;;;;;;107.57;66.10;;;18.80;77.20;;;;;;4961206;28;90060;-46
2023/07/02 00:48:06;;;;;;;102.00;62.33;;;18.80;77.30;;;;;;4956919;28;91204;-47
2023/07/02 00:50:32;;;;;;;106.97;65.57;;;18.80;78.20;;;;;;4958830;28;90013;-50
2023/07/02 00:52:58;;;;;;;103.35;62.92;;;18.80;77.40;;;;;;4960361;28;95689;-54
2023/07/02 00:55:24;;;;;;;112.28;67.25;;;18.80;77.70;;;;;;4962884;28;92135;-51
2023/07/02 00:57:50;;;;;;;109.82;66.00;;;18.80;77.40;;;;;;4953370;28;89662;-51
2023/07/02 01:00:16;;;;;;;111.57;66.05;;;18.80;77.50;;;;;;4963508;28;89992;-52
2023/07/02 01:02:44;;;;;;;111.22;66.40;;;18.70;77.30;;;;;;4948543;28;91065;-50
2023/07/02 01:05:21;;;;;;;101.72;63.50;;;18.70;77.50;;;;;;4952651;28;92497;-50
2023/07/02 01:07:47;;;;;;;108.93;66.45;;;18.70;78.20;;;;;;4955387;28;89649;-49
2023/07/02 01:10:12;;;;;;;109.55;66.45;;;18.70;77.90;;;;;;4939907;28;89025;-53
2023/07/02 01:12:39;;;;;;;105.50;65.47;;;18.70;77.90;;;;;;4948634;28;90495;-51
2023/07/02 01:15:06;;;;;;;113.00;66.82;;;18.70;77.70;;;;;;4936501;28;93371;-51
2023/07/02 01:17:41;;;;;;;112.25;67.20;;;18.70;77.60;;;;;;4940467;28;90753;-52
2023/07/02 01:20:09;;;;;;;103.65;63.95;;;18.70;77.50;;;;;;4949498;28;90520;-50
2023/07/02 01:22:35;;;;;;;110.22;66.85;;;18.70;78.20;;;;;;4941289;28;91517;-51
2023/07/02 01:25:01;;;;;;;109.00;66.13;;;18.70;77.90;;;;;;4944879;28;89692;-50
2023/07/02 01:27:30;;;;;;;103.28;65.03;;;18.60;77.60;;;;;;4941620;28;90642;-52
2023/07/02 01:29:56;;;;;;;115.57;66.82;;;18.60;78.10;;;;;;4930547;28;94108;-50
2023/07/02 01:32:22;;;;;;;107.38;65.93;;;18.60;77.90;;;;;;4927301;28;90811;-50
2023/07/02 01:34:48;;;;;;;106.63;65.45;;;18.60;77.90;;;;;;4938797;28;92746;-49
2023/07/02 01:37:18;;;;;;;104.50;64.40;;;18.60;78.70;;;;;;4944552;28;89973;-47
2023/07/02 01:39:43;;;;;;;108.25;65.03;;;18.60;78.00;;;;;;4937875;28;91304;-48
2023/07/02 01:42:17;;;;;;;102.95;64.28;;;18.60;78.30;;;;;;4938900;28;90953;-51
2023/07/02 01:44:43;;;;;;;103.90;64.72;;;18.50;78.10;;;;;;4943523;28;89765;-50
2023/07/02 01:47:09;;;;;;;103.50;63.80;;;18.50;78.10;;;;;;4945886;28;90015;-49
2023/07/02 01:49:36;;;;;;;103.43;63.50;;;18.50;78.30;;;;;;4944618;28;89792;-50
2023/07/02 01:52:01;;;;;;;106.00;64.93;;;18.50;81.00;;;;;;4937891;28;89649;-50
2023/07/02 01:54:28;;;;;;;110.05;66.50;;;18.50;78.20;;;;;;4943671;28;89512;-51
2023/07/02 01:56:56;;;;;;;104.53;64.00;;;18.50;78.10;;;;;;4944331;28;93701;-50
2023/07/02 01:59:22;;;;;;;109.30;66.25;;;18.50;78.80;;;;;;4940007;28;89235;-51
2023/07/02 02:01:47;;;;;;;103.72;64.40;;;18.50;78.50;;;;;;4943061;28;90170;-46
2023/07/02 02:04:13;;;;;;;109.38;65.85;;;18.40;78.50;;;;;;4942328;28;90072;-47
2023/07/02 02:06:40;;;;;;;101.63;64.13;;;18.40;78.20;;;;;;4936684;28;91873;-52
2023/07/02 02:09:06;;;;;;;102.88;63.75;;;18.40;78.70;;;;;;4931595;28;89653;-47
2023/07/02 02:11:37;;;;;;;103.13;64.47;;;18.40;79.10;;;;;;4930451;28;91742;-47
2023/07/02 02:14:03;;;;;;;103.25;64.85;;;18.40;78.80;;;;;;4929606;28;89853;-49
2023/07/02 02:16:29;;;;;;;101.80;63.85;;;18.40;78.90;;;;;;4930390;28;90309;-53
2023/07/02 02:18:55;;;;;;;102.45;63.95;;;18.40;79.70;;;;;;4931649;28;94419;-51
2023/07/02 02:21:22;;;;;;;107.25;66.05;;;18.40;79.00;;;;;;4934870;28;89978;-49
2023/07/02 02:23:48;;;;;;;101.75;64.25;;;18.40;79.70;;;;;;4923080;28;94115;-51
2023/07/02 02:26:14;;;;;;;101.50;63.70;;;18.40;79.50;;;;;;4930350;28;89850;-48
2023/07/02 02:28:40;;;;;;;103.65;64.90;;;18.40;79.40;;;;;;4933470;28;92576;-51
2023/07/02 02:31:05;;;;;;;106.95;65.22;;;18.40;79.40;;;;;;4928850;28;92495;-47
2023/07/02 02:33:32;;;;;;;100.15;62.38;;;18.30;79.10;;;;;;4927769;28;91138;-50
2023/07/02 02:35:58;;;;;;;99.60;62.83;;;18.30;81.20;;;;;;4932502;28;91520;-48
2023/07/02 02:38:23;;;;;;;101.80;64.10;;;18.40;80.60;;;;;;4932180;28;89590;-50
2023/07/02 02:40:49;;;;;;;105.63;64.57;;;18.30;78.70;;;;;;4933010;28;91415;-48
2023/07/02 02:43:16;;;;;;;104.35;64.40;;;18.30;79.00;;;;;;4934809;28;90798;-51
2023/07/02 02:45:42;;;;;;;105.45;64.68;;;18.30;79.30;;;;;;4926442;28;94295;-50
2023/07/02 02:48:08;;;;;;;106.45;63.45;;;18.30;79.00;;;;;;4928357;28;93917;-52
2023/07/02 02:50:33;;;;;;;106.75;65.20;;;18.30;78.70;;;;;;4944226;28;89580;-51
2023/07/02 02:52:59;;;;;;;103.20;64.70;;;18.30;79.20;;;;;;4928343;28;90581;-51
2023/07/02 02:55:26;;;;;;;108.32;65.53;;;18.30;79.10;;;;;;4929334;28;90982;-50
2023/07/02 02:57:51;;;;;;;100.70;64.00;;;18.20;78.70;;;;;;4926643;28;92718;-50
2023/07/02 03:00:17;;;;;;;101.65;63.03;;;18.20;79.30;;;;;;4929656;28;90830;-52
2023/07/02 03:02:43;;;;;;;101.10;63.45;;;18.20;79.00;;;;;;4927898;28;91230;-52
2023/07/02 03:05:08;;;;;;;105.70;63.78;;;18.20;78.90;;;;;;4930663;28;89550;-53
2023/07/02 03:07:35;;;;;;;105.38;64.90;;;18.20;79.10;;;;;;4937701;28;89572;-50
2023/07/02 03:10:01;;;;;;;106.22;63.85;;;18.20;79.40;;;;;;4928617;28;90874;-47
2023/07/02 03:12:26;;;;;;;100.82;63.90;;;18.10;80.00;;;;;;4934669;28;91656;-46
2023/07/02 03:14:54;;;;;;;105.22;64.55;;;18.10;79.50;;;;;;4931821;28;90410;-48
2023/07/02 03:17:23;;;;;;;102.63;63.08;;;18.10;79.30;;;;;;4938851;28;89507;-47
2023/07/02 03:19:49;;;;;;;102.60;65.18;;;18.10;81.60;;;;;;4932113;28;90638;-47
2023/07/02 03:22:15;;;;;;;103.53;64.85;;;18.10;79.90;;;;;;4930898;28;91684;-48
2023/07/02 03:24:41;;;;;;;107.65;65.47;;;18.10;79.30;;;;;;4925196;28;96000;-47
2023/07/02 03:27:06;;;;;;;103.40;65.90;;;18.10;80.40;;;;;;4930184;28;90034;-47
2023/07/02 03:29:34;;;;;;;104.43;65.85;;;18.00;79.70;;;;;;4926398;28;92219;-46
2023/07/02 03:32:00;;;;;;;102.53;64.50;;;18.00;79.60;;;;;;4924639;28;89571;-48
2023/07/02 03:34:26;;;;;;;105.90;67.45;;;18.00;80.30;;;;;;4929785;28;91808;-47
2023/07/02 03:36:51;;;;;;;111.28;69.60;;;18.00;79.20;;;;;;4931696;28;92952;-47
2023/07/02 03:39:17;;;;;;;107.78;68.07;;;18.00;79.30;;;;;;4927576;28;90272;-47
2023/07/02 03:41:44;;;;;;;106.07;65.07;;;18.00;79.40;;;;;;4932797;28;90234;-46
2023/07/02 03:44:09;;;;;;;103.40;65.38;;;18.00;80.30;;;;;;4934918;28;95479;-47
2023/07/02 03:46:35;;;;;;;107.50;67.32;;;18.00;80.00;;;;;;4933993;28;94678;-47
2023/07/02 03:49:03;;;;;;;111.00;65.80;;;18.00;79.50;;;;;;4926846;28;94764;-48
2023/07/02 03:51:29;;;;;;;102.68;64.63;;;17.90;79.70;;;;;;4933021;28;89665;-47
2023/07/02 03:53:54;;;;;;;103.90;64.95;;;17.90;79.40;;;;;;4909370;28;90425;-46
2023/07/02 03:56:20;;;;;;;108.50;66.25;;;17.90;80.30;;;;;;4923163;28;92466;-46
2023/07/02 03:58:46;;;;;;;104.82;65.82;;;17.90;79.40;;;;;;4933580;28;89974;-47
2023/07/02 04:01:12;;;;;;;102.70;64.70;;;17.90;80.30;;;;;;4938349;28;90065;-46
2023/07/02 04:03:38;;;;;;;103.72;65.00;;;17.90;79.50;;;;;;4933993;28;89738;-46
2023/07/02 04:06:05;;;;;;;102.55;64.07;;;17.90;79.40;;;;;;4924645;28;89803;-46
2023/07/02 04:08:31;;;;;;;103.97;65.00;;;17.90;79.70;;;;;;4932785;28;91171;-46
2023/07/02 04:10:57;;;;;;;102.97;63.95;;;17.90;80.30;;;;;;4936196;28;90926;-47
2023/07/02 04:13:22;;;;;;;103.38;63.70;;;17.90;80.30;;;;;;4937809;28;89963;-48
2023/07/02 04:15:48;;;;;;;103.43;65.20;;;17.90;80.00;;;;;;4942719;28;89532;-46
2023/07/02 04:18:14;;;;;;;99.60;63.75;;;17.80;80.30;;;;;;4941351;28;90231;-48
2023/07/02 04:20:39;;;;;;;106.53;64.95;;;17.90;79.40;;;;;;4937012;28;89856;-50
2023/07/02 04:23:08;;;;;;;103.03;64.93;;;17.90;79.30;;;;;;4941720;28;89450;-50
2023/07/02 04:25:33;;;;;;;101.63;63.88;;;17.90;79.40;;;;;;4941901;28;89047;-50
2023/07/02 04:27:59;;;;;;;103.50;64.40;;;17.80;80.20;;;;;;4940300;28;91237;-51
2023/07/02 04:30:25;;;;;;;101.38;64.18;;;17.90;79.40;;;;;;4939611;28;89917;-47
2023/07/02 04:32:52;;;;;;;105.28;64.22;;;17.80;79.60;;;;;;4937076;28;92889;-47
2023/07/02 04:35:18;;;;;;;103.68;63.22;;;17.90;80.20;;;;;;4936608;28;92319;-47
2023/07/02 04:37:44;;;;;;;102.30;64.07;;;17.90;79.50;;;;;;4942667;28;90026;-48
2023/07/02 04:40:10;;;;;;;100.65;64.03;;;17.90;79.40;;;;;;4940156;28;91074;-47
2023/07/02 04:42:37;;;;;;;101.18;64.05;;;17.90;79.30;;;;;;4934490;28;93847;-46
2023/07/02 04:45:05;;;;;;;102.68;63.47;;;17.90;79.10;;;;;;4940362;28;90232;-46
2023/07/02 04:47:30;;;;;;;105.10;64.28;;;17.90;78.90;;;;;;4939662;28;89540;-47
2023/07/02 04:49:56;;;;;;;99.50;63.05;;;17.90;79.00;;;;;;4947031;28;90507;-47
2023/07/02 04:52:22;;;;;;;104.65;63.83;;;17.90;79.00;;;;;;4949818;28;89686;-47
2023/07/02 04:54:48;;;;;;;99.95;63.22;;;17.90;79.10;;;;;;4935230;28;90177;-48
2023/07/02 04:57:14;;;;;;;101.13;63.00;;;18.00;78.80;;;;;;4937427;28;90472;-48
2023/07/02 04:59:41;;;;;;;101.10;63.97;;;17.90;79.50;;;;;;4931521;28;91129;-46
2023/07/02 05:02:06;;;;;;;103.80;63.20;;;18.00;79.00;;;;;;4940108;28;89562;-48
2023/07/02 05:04:32;;;;;;;103.47;63.38;;;18.00;78.90;;;;;;4949606;28;89632;-48
2023/07/02 05:06:59;;;;;;;101.20;63.72;;;18.00;78.70;;;;;;4937181;28;91897;-47
2023/07/02 05:09:24;;;;;;;105.65;64.68;;;18.00;79.20;;;;;;4949924;28;89720;-46
2023/07/02 05:11:50;;;;;;;101.28;64.28;;;18.10;78.40;;;;;;4944148;28;90033;-48
2023/07/02 05:14:15;;;;;;;100.78;64.70;;;18.10;78.50;;;;;;4947648;28;88978;-46
2023/07/02 05:16:41;;;;;;;100.65;63.75;;;18.10;78.30;;;;;;4951971;28;89982;-47
2023/07/02 05:19:07;;;;;;;102.85;64.00;;;18.10;78.90;;;;;;4944916;28;89731;-46
2023/07/02 05:21:32;;;;;;;100.90;63.88;;;18.10;78.30;;;;;;4939947;28;90650;-48
2023/07/02 05:23:58;;;;;;;104.57;63.83;;;18.10;78.10;;;;;;4934142;28;90014;-48
2023/07/02 05:26:24;;;;;;;104.10;64.47;;;18.20;78.40;;;;;;4948173;28;89916;-46
2023/07/02 05:28:50;;;;;;;101.97;64.07;;;18.20;78.20;;;;;;4942729;28;90503;-47
2023/07/02 05:31:15;;;;;;;103.25;63.55;;;18.20;77.90;;;;;;4938119;28;90667;-48
2023/07/02 05:33:41;;;;;;;102.80;64.50;;;18.30;77.90;;;;;;4945368;28;90141;-47
2023/07/02 05:36:06;;;;;;;103.22;63.30;;;18.30;77.80;;;;;;4940150;28;89712;-49
2023/07/02 05:38:32;;;;;;;100.35;63.95;;;18.30;77.70;;;;;;4946029;28;88836;-49
2023/07/02 05:40:58;;;;;;;99.85;62.95;;;18.30;77.70;;;;;;4939081;28;89381;-46
2023/07/02 05:43:23;;;;;;;100.43;63.50;;;18.30;78.20;;;;;;4934464;28;89844;-46
2023/07/02 05:45:51;;;;;;;102.20;62.47;;;18.40;77.80;;;;;;4945189;28;91017;-48
2023/07/02 05:48:16;;;;;;;100.22;62.90;;;18.40;77.40;;;;;;4938206;28;90133;-47
2023/07/02 05:50:42;;;;;;;100.22;63.63;;;18.40;77.60;;;;;;4946075;28;89498;-46
2023/07/02 05:53:09;;;;;;;100.97;63.30;;;18.40;77.20;;;;;;4946881;28;92793;-50
2023/07/02 05:55:35;;;;;;;98.97;62.97;;;18.50;77.50;;;;;;4938009;28;89925;-49
2023/07/02 05:58:02;;;;;;;102.55;63.72;;;18.50;77.90;;;;;;4938195;28;90003;-46
2023/07/02 06:00:28;;;;;;;100.38;63.03;;;18.50;77.10;;;;;;4939701;28;93492;-47
2023/07/02 06:02:54;;;;;;;99.55;62.55;;;18.60;76.90;;;;;;4942073;28;92479;-48
2023/07/02 06:05:20;;;;;;;101.05;64.00;;;18.60;77.50;;;;;;4938641;28;90019;-49
2023/07/02 06:07:45;;;;;;;101.70;63.20;;;18.60;77.90;;;;;;4945546;28;90785;-49
2023/07/02 06:10:11;;;;;;;102.25;63.55;;;18.70;76.70;;;;;;4938815;28;90719;-48
2023/07/02 06:12:37;;;;;;;100.53;63.22;;;18.70;76.70;;;;;;4940438;28;94976;-47
2023/07/02 06:15:03;;;;;;;99.18;63.40;;;18.70;77.50;;;;;;4940234;28;89638;-46
2023/07/02 06:17:30;;;;;;;101.13;62.47;;;18.70;76.40;;;;;;4935549;28;90245;-46
2023/07/02 06:19:57;;;;;;;98.15;63.13;;;18.80;76.30;;;;;;4940955;28;90662;-47
2023/07/02 06:22:23;;;;;;;100.47;62.10;;;18.80;76.50;;;;;;4937002;28;90530;-47
2023/07/02 06:24:49;;;;;;;100.40;61.25;;;18.80;75.90;;;;;;4935197;28;92067;-47
2023/07/02 06:27:14;;;;;;;98.60;61.97;;;18.90;75.90;;;;;;4940125;28;89046;-47
2023/07/02 06:29:40;;;;;;;97.30;61.78;;;18.90;76.10;;;;;;4941134;28;89847;-46
2023/07/02 06:32:06;;;;;;;100.70;64.00;;;19.00;75.90;;;;;;4936902;28;89904;-46
2023/07/02 06:34:32;;;;;;;100.45;62.92;;;19.00;76.70;;;;;;4939916;28;90560;-47
2023/07/02 06:36:58;;;;;;;99.55;62.38;;;19.10;75.50;;;;;;4937827;28;91524;-46
2023/07/02 06:39:23;;;;;;;100.90;62.08;;;19.10;75.60;;;;;;4939759;28;90216;-46
2023/07/02 06:41:49;;;;;;;100.88;62.30;;;19.10;75.30;;;;;;4935336;28;90067;-51
2023/07/02 06:44:14;;;;;;;100.07;62.50;;;19.20;75.70;;;;;;4946309;28;89918;-52
2023/07/02 06:46:40;;;;;;;97.65;61.65;;;19.20;76.10;;;;;;4946126;28;89647;-51
2023/07/02 06:49:06;;;;;;;99.80;62.85;;;19.20;75.00;;;;;;4937183;28;90152;-50
2023/07/02 06:51:34;;;;;;;97.95;62.35;;;19.30;75.90;;;;;;4943490;28;89141;-48
2023/07/02 06:53:59;;;;;;;100.47;62.85;;;19.30;75.00;;;;;;4942602;28;89417;-47
2023/07/02 06:56:25;;;;;;;99.55;62.10;;;19.40;74.80;;;;;;4940190;28;89463;-50
2023/07/02 06:58:50;;;;;;;101.60;63.00;;;19.40;74.50;;;;;;4945649;28;91416;-46
2023/07/02 07:01:16;;;;;;;101.63;63.72;;;19.40;74.70;;;;;;4936475;28;91225;-46
2023/07/02 07:03:42;;;;;;;102.00;62.88;;;19.50;75.50;;;;;;4923354;28;90233;-48
2023/07/02 07:06:07;;;;;;;102.10;62.10;;;19.50;75.40;;;;;;4941363;28;89872;-49
2023/07/02 07:08:33;;;;;;;98.75;62.63;;;19.60;74.40;;;;;;4948833;28;92242;-48
2023/07/02 07:10:58;;;;;;;103.00;62.95;;;19.60;74.50;;;;;;4939388;28;95284;-47
2023/07/02 07:13:24;;;;;;;98.75;61.95;;;19.60;75.00;;;;;;4944274;28;90167;-47
2023/07/02 07:15:49;;;;;;;98.03;63.03;;;19.60;74.40;;;;;;4946014;28;89168;-47
2023/07/02 07:18:15;;;;;;;103.50;63.13;;;19.60;74.80;;;;;;4945150;28;89727;-46
2023/07/02 07:20:42;;;;;;;99.88;62.80;;;19.70;74.50;;;;;;4943273;28;90409;-46
2023/07/02 07:23:07;;;;;;;101.32;62.97;;;19.80;75.10;;;;;;4930513;28;91027;-46
2023/07/02 07:25:33;;;;;;;100.68;63.30;;;19.80;74.30;;;;;;4930616;28;94202;-46
2023/07/02 07:28:01;;;;;;;98.72;62.22;;;19.90;74.10;;;;;;4944460;28;89447;-47
2023/07/02 07:30:27;;;;;;;97.28;61.45;;;19.90;74.30;;;;;;4929772;28;91092;-46
2023/07/02 07:32:53;;;;;;;101.35;62.47;;;19.90;73.70;;;;;;4928060;28;90250;-47
2023/07/02 07:35:21;;;;;;;104.72;62.60;;;19.90;73.40;;;;;;4933067;28;90313;-46
2023/07/02 07:37:47;;;;;;;102.70;63.30;;;20.00;73.30;;;;;;4930368;28;89871;-46
2023/07/02 07:40:13;;;;;;;98.60;62.25;;;20.10;73.70;;;;;;4927790;28;89156;-47
2023/07/02 07:42:38;;;;;;;102.72;62.17;;;20.10;72.90;;;;;;4930125;28;90228;-46
2023/07/02 07:45:05;;;;;;;101.07;62.60;;;20.20;72.60;;;;;;4940368;28;90112;-47
2023/07/02 07:47:30;;;;;;;99.78;62.42;;;20.20;72.90;;;;;;4932194;28;90955;-46
2023/07/02 07:49:56;;;;;;;101.35;62.45;;;20.20;73.00;;;;;;4933599;28;90220;-51
2023/07/02 07:52:21;;;;;;;102.97;62.08;;;20.20;72.90;;;;;;4935558;28;91021;-47
2023/07/02 07:54:47;;;;;;;96.22;60.95;;;20.20;73.20;;;;;;4935305;28;90362;-47
2023/07/02 07:57:14;;;;;;;98.53;62.85;;;20.30;72.70;;;;;;4941529;28;89634;-48
2023/07/02 07:59:40;;;;;;;100.15;62.10;;;20.30;73.30;;;;;;4940332;28;89980;-44
2023/07/02 08:02:06;;;;;;;102.40;62.25;;;20.30;72.80;;;;;;4938975;28;92625;-46
2023/07/02 08:04:32;;;;;;;104.97;61.38;;;20.30;72.70;;;;;;4935002;28;89950;-45
2023/07/02 08:06:57;;;;;;;103.90;62.92;;;20.40;72.60;;;;;;4934676;28;91130;-44
2023/07/02 08:09:24;;;;;;;101.60;62.50;;;20.40;73.10;;;;;;4930579;28;90596;-44
2023/07/02 08:11:50;;;;;;;100.72;61.63;;;20.50;73.00;;;;;;4932731;28;91028;-44
2023/07/02 08:14:19;;;;;;;99.10;61.03;;;20.60;72.80;;;;;;4935262;28;91183;-44
2023/07/02 08:16:44;;;;;;;101.45;62.38;;;20.60;72.70;;;;;;4924486;28;89494;-43
2023/07/02 08:19:10;;;;;;;98.03;61.10;;;20.60;72.90;;;;;;4933207;28;91203;-44
2023/07/02 08:21:36;;;;;;;97.07;60.83;;;20.60;72.30;;;;;;4929966;28;90739;-44
2023/07/02 08:24:03;;;;;;;100.10;61.17;;;20.60;72.20;;;;;;4927136;28;91256;-44
2023/07/02 08:26:29;;;;;;;97.03;60.75;;;20.60;72.00;;;;;;4936306;28;91657;-45
2023/07/02 08:28:55;;;;;;;100.82;62.08;;;20.60;72.80;;;;;;4941624;28;89045;-46
2023/07/02 08:31:20;;;;;;;100.72;60.95;;;20.70;72.30;;;;;;4929095;28;91285;-46
2023/07/02 08:33:46;;;;;;;101.25;61.33;;;20.70;71.80;;;;;;4935679;28;89770;-45
2023/07/02 08:36:13;;;;;;;101.43;61.67;;;20.70;71.40;;;;;;4929089;28;94370;-47
2023/07/02 08:38:41;;;;;;;100.10;61.17;;;20.80;71.50;;;;;;4937552;28;91377;-45
2023/07/02 08:41:07;;;;;;;101.63;60.60;;;20.80;71.60;;;;;;4936536;28;89877;-45
2023/07/02 08:43:35;;;;;;;100.32;61.67;;;20.80;71.30;;;;;;4928425;28;90829;-44
2023/07/02 08:46:01;;;;;;;99.30;61.28;;;20.80;72.40;;;;;;4935244;28;91633;-44
2023/07/02 08:48:29;;;;;;;99.32;60.63;;;20.80;72.30;;;;;;4930881;28;93601;-44
2023/07/02 08:50:55;;;;;;;98.95;61.17;;;20.90;71.50;;;;;;4920511;28;90109;-45
2023/07/02 08:53:25;;;;;;;100.70;61.40;;;20.90;72.70;;;;;;4931587;28;90015;-44
2023/07/02 08:55:50;;;;;;;98.38;59.90;;;21.00;71.70;;;;;;4933596;28;89886;-46
2023/07/02 08:58:16;;;;;;;100.57;62.00;;;21.00;71.60;;;;;;4932223;28;90377;-47
2023/07/02 09:01:11;;;;;;;100.30;63.08;;;21.00;71.30;;;;;;4932854;28;96332;-45
2023/07/02 09:03:38;;;;;;;100.32;62.20;;;21.10;71.10;;;;;;4928737;28;90333;-46
2023/07/02 09:06:08;;;;;;;100.65;61.95;;;21.10;70.90;;;;;;4937810;28;89827;-45
2023/07/02 09:08:34;;;;;;;109.77;67.43;;;21.10;70.50;;;;;;4943149;28;89696;-48
2023/07/02 09:11:11;;;;;;;106.95;66.18;;;21.20;71.90;;;;;;4931835;28;91629;-45
2023/07/02 09:13:44;;;;;;;102.18;63.28;;;21.20;70.90;;;;;;4932693;28;92073;-45
2023/07/02 09:16:22;;;;;;;106.47;65.93;;;21.30;70.30;;;;;;4935488;28;89481;-45
2023/07/02 09:18:57;;;;;;;99.32;61.65;;;21.40;70.40;;;;;;4933024;28;88832;-44
2023/07/02 09:21:25;;;;;;;107.93;65.65;;;21.40;69.40;;;;;;4931448;28;89900;-44
2023/07/02 09:23:51;;;;;;;110.10;69.05;;;21.50;69.90;;;;;;4939955;28;90149;-45
2023/07/02 09:26:23;;;;;;;105.90;65.38;;;21.50;71.30;;;;;;4939186;28;90902;-46
2023/07/02 09:28:49;;;;;;;99.65;60.83;;;21.60;70.90;;;;;;4934154;28;90555;-44
2023/07/02 09:31:15;;;;;;;98.15;60.58;;;21.50;69.50;;;;;;4942564;28;90602;-46
2023/07/02 09:33:40;;;;;;;105.25;65.68;;;21.60;70.50;;;;;;4933292;28;91048;-44
2023/07/02 09:36:06;;;;;;;111.72;70.00;;;21.60;70.90;;;;;;4932702;28;90626;-43
2023/07/02 09:38:32;;;;;;;106.60;68.78;;;21.70;72.70;;;;;;4946385;28;89735;-45
2023/07/02 09:40:59;;;;;;;104.00;64.90;;;21.80;72.50;;;;;;4937481;28;89491;-47
2023/07/02 09:43:25;;;;;;;107.65;65.03;;;21.90;70.90;;;;;;4934253;28;88848;-44
2023/07/02 09:45:53;;;;;;;109.20;65.50;;;22.00;58.30;;;;;;4942262;28;89652;-42
2023/07/02 09:48:23;;;;;;;109.22;64.72;;;22.10;57.70;;;;;;4933177;28;94333;-41
2023/07/02 09:50:50;;;;;;;107.63;63.35;;;22.10;57.60;;;;;;4928669;28;90769;-44
2023/07/02 09:53:16;;;;;;;105.05;63.33;;;22.00;56.90;;;;;;4933486;28;90480;-44
2023/07/02 09:55:44;;;;;;;108.38;63.55;;;22.00;55.40;;;;;;4930148;28;90536;-45
2023/07/02 09:58:11;;;;;;;104.28;61.60;;;22.00;56.50;;;;;;4933493;28;90014;-44
2023/07/02 10:00:37;;;;;;;101.47;61.40;;;21.80;53.40;;;;;;4926940;28;91861;-44
2023/07/02 10:03:03;;;;;;;100.38;61.92;;;21.60;52.80;;;;;;4924938;28;89914;-44
2023/07/02 10:05:32;;;;;;;106.03;61.35;;;21.60;53.70;;;;;;4930717;28;90451;-46
2023/07/02 10:08:17;;;;;;;101.85;61.13;;;21.60;52.60;;;;;;4912898;28;89267;-43
2023/07/02 10:10:43;;;;;;;102.57;61.22;;;21.70;53.10;;;;;;4927592;28;91782;-45
2023/07/02 10:13:09;;;;;;;101.05;60.97;;;21.80;54.40;;;;;;4932899;28;89485;-44
2023/07/02 10:15:39;;;;;;;106.85;61.60;;;21.80;52.80;;;;;;4919093;28;92080;-46
2023/07/02 10:18:06;;;;;;;104.00;61.53;;;21.80;53.90;;;;;;4932043;28;89552;-45
2023/07/02 10:20:37;;;;;;;99.63;60.70;;;21.80;54.90;;;;;;4935280;28;90210;-45
2023/07/02 10:23:04;;;;;;;106.55;61.88;;;21.80;54.70;;;;;;4924491;28;92829;-42
2023/07/02 10:25:36;;;;;;;102.93;61.50;;;21.90;55.20;;;;;;4925977;28;91751;-44
2023/07/02 10:28:17;;;;;;;102.85;61.28;;;21.90;53.60;;;;;;4923161;28;90275;-45
2023/07/02 10:30:42;;;;;;;106.90;61.80;;;22.00;54.60;;;;;;4931033;28;90314;-43
2023/07/02 10:33:13;;;;;;;108.38;61.55;;;22.00;54.30;;;;;;4937206;28;92717;-47
2023/07/02 10:35:42;;;;;;;104.35;60.92;;;22.00;53.60;;;;;;4929800;28;90723;-45
2023/07/02 10:38:14;;;;;;;100.88;60.72;;;22.00;53.90;;;;;;4933360;28;89608;-47
2023/07/02 10:40:39;;;;;;;100.18;60.15;;;21.80;51.70;;;;;;4930429;28;91805;-45
2023/07/02 10:43:07;;;;;;;101.10;61.00;;;21.90;53.60;;;;;;4932809;28;90305;-43
2023/07/02 10:45:34;;;;;;;101.05;60.90;;;21.80;52.60;;;;;;4927969;28;94003;-43
2023/07/02 10:48:04;;;;;;;100.90;60.67;;;21.90;52.40;;;;;;4932951;28;90871;-44
2023/07/02 10:50:31;;;;;;;99.47;60.40;;;21.80;52.30;;;;;;4930436;28;94896;-42
2023/07/02 10:52:58;;;;;;;101.57;60.67;;;21.70;52.50;;;;;;4931521;28;90186;-43
2023/07/02 10:55:25;;;;;;;100.80;60.25;;;21.60;51.50;;;;;;4932501;28;90636;-43
2023/07/02 10:58:06;;;;;;;99.32;59.65;;;21.70;52.40;;;;;;4927086;28;90303;-44
2023/07/02 11:00:32;;;;;;;104.40;60.60;;;21.70;53.00;;;;;;4928670;28;89589;-43
2023/07/02 11:02:58;;;;;;;101.18;59.90;;;21.70;51.90;;;;;;4943477;28;90109;-43
2023/07/02 11:05:24;;;;;;;100.40;60.28;;;21.70;51.30;;;;;;4930115;28;91383;-43
2023/07/02 11:07:56;;;;;;;98.28;59.75;;;21.80;53.00;;;;;;4945463;28;90025;-43
2023/07/02 11:10:22;;;;;;;100.68;60.60;;;21.90;52.50;;;;;;4934433;28;90142;-44
2023/07/02 11:12:48;;;;;;;99.05;60.33;;;21.90;51.40;;;;;;4934412;28;89602;-43
2023/07/02 11:15:15;;;;;;;103.07;60.28;;;21.90;50.60;;;;;;4923781;28;93197;-44
2023/07/02 11:17:41;;;;;;;100.72;60.67;;;21.90;51.50;;;;;;4937288;28;89422;-43
2023/07/02 11:20:11;;;;;;;99.03;59.60;;;21.90;51.50;;;;;;4935749;28;91034;-46
2023/07/02 11:22:38;;;;;;;102.47;59.95;;;21.90;50.30;;;;;;4939777;28;88807;-44
2023/07/02 11:25:22;;;;;;;101.43;60.25;;;21.90;50.60;;;;;;4938979;28;89671;-44
2023/07/02 11:27:47;;;;;;;102.60;59.85;;;21.90;49.50;;;;;;4933104;28;90032;-44
2023/07/02 11:30:13;;;;;;;103.45;61.10;;;21.90;50.60;;;;;;4935678;28;94747;-43
2023/07/02 11:32:53;;;;;;;99.43;60.20;;;21.90;49.50;;;;;;4934854;28;90678;-43
2023/07/02 11:35:19;;;;;;;99.28;60.30;;;21.80;51.00;;;;;;4929215;28;92951;-43
2023/07/02 11:37:45;;;;;;;102.53;60.20;;;21.80;52.30;;;;;;4936092;28;91284;-45
2023/07/02 11:40:11;;;;;;;100.47;59.97;;;21.90;52.10;;;;;;4927279;28;91352;-43
2023/07/02 11:42:37;;;;;;;98.22;59.40;;;21.90;51.30;;;;;;4932831;28;90801;-45
2023/07/02 11:45:03;;;;;;;99.22;59.63;;;21.90;51.60;;;;;;4926746;28;90134;-44
2023/07/02 11:47:29;;;;;;;100.68;59.65;;;21.90;53.20;;;;;;4925975;28;89887;-43
2023/07/02 11:49:55;;;;;;;98.78;59.70;;;21.80;50.90;;;;;;4920200;28;90687;-44
2023/07/02 11:52:21;;;;;;;100.88;60.60;;;21.90;51.20;;;;;;4930175;28;89888;-43
2023/07/02 11:54:47;;;;;;;101.60;60.03;;;22.00;52.40;;;;;;4943063;28;94092;-43
2023/07/02 11:57:12;;;;;;;96.25;59.08;;;22.10;51.80;;;;;;4943092;28;90024;-43
2023/07/02 11:59:38;;;;;;;99.10;59.55;;;22.00;49.60;;;;;;4935855;28;90181;-43
2023/07/02 12:02:04;;;;;;;97.45;59.20;;;22.00;49.50;;;;;;4941947;28;90398;-44
2023/07/02 12:04:29;;;;;;;99.78;59.38;;;21.90;50.30;;;;;;4940858;28;89316;-44
2023/07/02 12:06:55;;;;;;;98.45;59.72;;;21.90;48.90;;;;;;4940871;28;89928;-43
2023/07/02 12:09:21;;;;;;;97.53;59.70;;;22.00;52.20;;;;;;4944891;28;90109;-44
2023/07/02 12:11:46;;;;;;;100.88;59.50;;;22.10;51.70;;;;;;4938310;28;93083;-43
2023/07/02 12:14:12;;;;;;;99.57;59.30;;;22.20;50.70;;;;;;4944646;28;89516;-44
2023/07/02 12:16:38;;;;;;;99.80;59.53;;;22.20;49.70;;;;;;4938172;28;89954;-43